createdAt,value
2022-10-06T00:00:01.203Z,238.20
2022-10-06T00:00:33.464Z,244.34
2022-10-06T00:01:08.683Z,252.10
2022-10-06T00:01:41.162Z,258.38
2022-10-06T00:02:13.957Z,225.64
2022-10-06T00:02:47.100Z,236.46
2022-10-06T00:03:23.028Z,239.76
2022-10-06T00:03:55.320Z,237.56
2022-10-06T00:04:27.647Z,244.04
2022-10-06T00:04:59.943Z,248.90
2022-10-06T00:05:32.438Z,229.90
2022-10-06T00:06:05.258Z,239.02
2022-10-06T00:06:37.678Z,234.84
2022-10-06T00:07:09.989Z,242.18
2022-10-06T00:07:42.366Z,240.64
2022-10-06T00:08:14.620Z,250.18
2022-10-06T00:08:47.345Z,251.92
2022-10-06T00:09:19.683Z,245.76
2022-10-06T00:09:52.317Z,245.88
2022-10-06T00:10:24.711Z,243.22
2022-10-06T00:10:57.379Z,249.46
2022-10-06T00:11:29.604Z,230.44
2022-10-06T00:12:02.051Z,232.56
2022-10-06T00:12:41.443Z,233.92
2022-10-06T00:13:13.753Z,249.07
2022-10-06T00:13:46.629Z,246.10
2022-10-06T00:14:19.050Z,236.02
2022-10-06T00:14:51.391Z,234.06
2022-10-06T00:15:25.916Z,239.26
2022-10-06T00:15:59.243Z,249.10
2022-10-06T00:16:31.634Z,236.26
2022-10-06T00:17:04.219Z,250.44
2022-10-06T00:17:36.504Z,244.28
2022-10-06T00:18:08.875Z,242.08
2022-10-06T00:18:41.388Z,244.80
2022-10-06T00:19:13.797Z,242.66
2022-10-06T00:19:46.103Z,244.02
2022-10-06T00:20:18.813Z,249.32
2022-10-06T00:20:58.386Z,252.32
2022-10-06T00:21:30.973Z,248.65
2022-10-06T00:22:03.390Z,245.78
2022-10-06T00:22:36.505Z,240.28
2022-10-06T00:23:09.272Z,242.48
2022-10-06T00:23:41.977Z,243.32
2022-10-06T00:24:14.255Z,242.70
2022-10-06T00:24:46.729Z,239.58
2022-10-06T00:25:20.275Z,241.50
2022-10-06T00:25:52.617Z,252.34
2022-10-06T00:26:24.993Z,231.02
2022-10-06T00:26:57.655Z,237.08
2022-10-06T00:27:33.965Z,236.16
2022-10-06T00:28:06.440Z,246.74
2022-10-06T00:28:40.104Z,256.90
2022-10-06T00:29:13.568Z,249.96
2022-10-06T00:29:46.020Z,242.78
2022-10-06T00:30:22.504Z,244.02
2022-10-06T00:30:56.529Z,256.04
2022-10-06T00:31:29.004Z,249.08
2022-10-06T00:32:01.498Z,236.76
2022-10-06T00:32:33.781Z,248.22
2022-10-06T00:33:06.254Z,233.80
2022-10-06T00:33:38.685Z,247.88
2022-10-06T00:34:11.036Z,237.84
2022-10-06T00:34:44.273Z,238.30
2022-10-06T00:35:16.667Z,239.66
2022-10-06T00:35:48.980Z,232.04
2022-10-06T00:36:21.554Z,250.60
2022-10-06T00:36:55.152Z,244.94
2022-10-06T00:37:28.496Z,239.50
2022-10-06T00:38:01.127Z,245.78
2022-10-06T00:38:33.578Z,246.28
2022-10-06T00:39:06.192Z,239.38
2022-10-06T00:39:38.460Z,240.56
2022-10-06T00:40:10.940Z,245.82
2022-10-06T00:40:47.089Z,244.56
2022-10-06T00:41:19.680Z,256.58
2022-10-06T00:41:52.005Z,246.20
2022-10-06T00:42:33.247Z,237.26
2022-10-06T00:43:06.677Z,246.54
2022-10-06T00:43:41.846Z,245.30
2022-10-06T00:44:14.112Z,242.72
2022-10-06T00:44:48.691Z,250.28
2022-10-06T00:45:26.466Z,245.12
2022-10-06T00:45:59.060Z,253.64
2022-10-06T00:46:36.977Z,242.68
2022-10-06T00:47:09.300Z,251.90
2022-10-06T00:47:42.155Z,255.32
2022-10-06T00:48:24.189Z,245.94
2022-10-06T00:49:01.274Z,254.92
2022-10-06T00:49:38.335Z,253.26
2022-10-06T00:50:12.006Z,264.33
2022-10-06T00:50:44.839Z,251.52
2022-10-06T00:51:17.287Z,250.80
2022-10-06T00:51:52.358Z,241.68
2022-10-06T00:52:27.073Z,243.06
2022-10-06T00:52:59.884Z,248.30
2022-10-06T00:53:32.567Z,244.84
2022-10-06T00:54:05.036Z,239.96
2022-10-06T00:54:38.042Z,236.50
2022-10-06T00:55:10.367Z,249.48
2022-10-06T00:55:43.099Z,231.64
2022-10-06T00:56:15.493Z,247.08
2022-10-06T00:56:48.282Z,243.58
2022-10-06T00:57:20.750Z,240.50
2022-10-06T00:57:53.250Z,245.56
2022-10-06T00:58:25.909Z,253.82
2022-10-06T00:58:58.576Z,247.56
2022-10-06T00:59:30.891Z,251.65
2022-10-06T01:00:04.758Z,251.02
2022-10-06T01:00:37.113Z,250.14
2022-10-06T01:01:11.670Z,250.14
2022-10-06T01:01:51.707Z,246.57
2022-10-06T01:02:34.608Z,251.15
2022-10-06T01:03:17.536Z,251.74
2022-10-06T01:03:54.431Z,258.46
2022-10-06T01:04:27.316Z,259.90
2022-10-06T01:05:01.057Z,243.70
2022-10-06T01:05:39.413Z,245.14
2022-10-06T01:06:11.958Z,248.22
2022-10-06T01:06:49.475Z,251.22
2022-10-06T01:07:24.634Z,251.08
2022-10-06T01:07:57.351Z,246.96
2022-10-06T01:08:30.426Z,236.94
2022-10-06T01:09:03.686Z,236.78
2022-10-06T01:09:36.208Z,253.02
2022-10-06T01:10:08.850Z,235.58
2022-10-06T01:10:41.521Z,244.06
2022-10-06T01:11:14.557Z,233.16
2022-10-06T01:11:48.734Z,253.22
2022-10-06T01:12:21.405Z,236.38
2022-10-06T01:12:53.931Z,243.86
2022-10-06T01:13:27.548Z,244.94
2022-10-06T01:14:00.010Z,249.60
2022-10-06T01:14:33.260Z,229.22
2022-10-06T01:15:05.876Z,247.84
2022-10-06T01:15:40.363Z,244.04
2022-10-06T01:16:15.546Z,253.92
2022-10-06T01:16:49.818Z,243.40
2022-10-06T01:17:25.727Z,243.28
2022-10-06T01:18:02.855Z,256.24
2022-10-06T01:18:36.498Z,243.64
2022-10-06T01:19:17.775Z,244.38
2022-10-06T01:19:55.216Z,250.04
2022-10-06T01:20:29.660Z,264.14
2022-10-06T01:21:20.239Z,257.92
2022-10-06T01:21:54.494Z,270.78
2022-10-06T01:22:29.087Z,253.16
2022-10-06T01:23:02.878Z,262.00
2022-10-06T01:23:35.589Z,247.46
2022-10-06T01:24:08.001Z,252.88
2022-10-06T01:24:40.633Z,254.56
2022-10-06T01:25:14.709Z,249.50
2022-10-06T01:25:47.154Z,256.92
2022-10-06T01:26:22.022Z,247.18
2022-10-06T01:26:55.773Z,244.62
2022-10-06T01:27:30.099Z,251.86
2022-10-06T01:28:04.399Z,264.60
2022-10-06T01:28:39.200Z,265.82
2022-10-06T01:29:12.238Z,258.14
2022-10-06T01:29:44.875Z,265.22
2022-10-06T01:30:19.222Z,246.32
2022-10-06T01:30:53.515Z,250.88
2022-10-06T01:31:28.461Z,261.06
2022-10-06T01:32:01.061Z,248.74
2022-10-06T01:32:34.500Z,253.08
2022-10-06T01:33:06.908Z,264.22
2022-10-06T01:33:39.430Z,253.86
2022-10-06T01:34:11.800Z,253.66
2022-10-06T01:34:44.087Z,240.42
2022-10-06T01:35:16.507Z,257.44
2022-10-06T01:35:50.344Z,252.44
2022-10-06T01:36:22.805Z,255.24
2022-10-06T01:36:57.069Z,254.32
2022-10-06T01:37:29.486Z,253.58
2022-10-06T01:38:01.801Z,255.04
2022-10-06T01:38:36.831Z,254.34
2022-10-06T01:39:10.150Z,258.74
2022-10-06T01:39:44.070Z,252.40
2022-10-06T01:40:16.618Z,250.62
2022-10-06T01:40:51.486Z,254.96
2022-10-06T01:41:25.040Z,256.67
2022-10-06T01:41:57.526Z,256.30
2022-10-06T01:42:32.100Z,246.36
2022-10-06T01:43:04.430Z,254.08
2022-10-06T01:43:36.711Z,240.64
2022-10-06T01:44:10.589Z,251.20
2022-10-06T01:44:43.179Z,241.84
2022-10-06T01:45:15.625Z,241.48
2022-10-06T01:45:57.331Z,248.80
2022-10-06T01:46:30.280Z,255.34
2022-10-06T01:47:05.221Z,252.32
2022-10-06T01:47:38.137Z,258.56
2022-10-06T01:48:10.431Z,248.64
2022-10-06T01:48:43.465Z,247.58
2022-10-06T01:49:17.818Z,254.90
2022-10-06T01:49:50.198Z,254.16
2022-10-06T01:50:22.726Z,248.82
2022-10-06T01:50:55.700Z,249.76
2022-10-06T01:51:28.636Z,247.76
2022-10-06T01:52:01.554Z,248.96
2022-10-06T01:52:34.943Z,249.78
2022-10-06T01:53:07.543Z,260.34
2022-10-06T01:53:39.821Z,242.94
2022-10-06T01:54:12.128Z,247.22
2022-10-06T01:54:44.402Z,253.18
2022-10-06T01:55:17.499Z,251.72
2022-10-06T01:55:50.576Z,247.62
2022-10-06T01:56:28.052Z,247.30
2022-10-06T01:57:00.399Z,244.76
2022-10-06T01:57:38.855Z,242.12
2022-10-06T01:58:11.716Z,259.04
2022-10-06T01:58:45.134Z,251.04
2022-10-06T01:59:17.612Z,259.15
2022-10-06T01:59:54.602Z,249.88
2022-10-06T02:00:28.792Z,254.94
2022-10-06T02:01:09.524Z,244.70
2022-10-06T02:01:42.110Z,253.15
2022-10-06T02:02:14.447Z,251.00
2022-10-06T02:02:46.807Z,241.86
2022-10-06T02:03:19.419Z,243.00
2022-10-06T02:03:51.871Z,253.23
2022-10-06T02:04:24.183Z,253.05
2022-10-06T02:04:56.572Z,255.50
2022-10-06T02:05:29.045Z,247.72
2022-10-06T02:06:01.475Z,250.66
2022-10-06T02:06:34.255Z,251.92
2022-10-06T02:07:06.793Z,247.26
2022-10-06T02:07:47.342Z,257.84
2022-10-06T02:08:21.541Z,259.18
2022-10-06T02:08:53.967Z,259.72
2022-10-06T02:09:26.249Z,251.88
2022-10-06T02:10:00.141Z,260.34
2022-10-06T02:10:36.613Z,252.30
2022-10-06T02:11:12.282Z,262.98
2022-10-06T02:11:47.635Z,255.60
2022-10-06T02:12:19.955Z,247.74
2022-10-06T02:12:52.889Z,252.66
2022-10-06T02:13:28.167Z,245.36
2022-10-06T02:14:01.739Z,252.80
2022-10-06T02:14:34.972Z,239.54
2022-10-06T02:15:07.552Z,255.94
2022-10-06T02:15:40.305Z,257.18
2022-10-06T02:16:14.337Z,251.86
2022-10-06T02:16:48.536Z,253.38
2022-10-06T02:17:21.018Z,264.12
2022-10-06T02:17:54.767Z,243.96
2022-10-06T02:18:33.663Z,246.14
2022-10-06T02:19:06.663Z,253.46
2022-10-06T02:19:39.169Z,249.00
2022-10-06T02:20:11.626Z,239.36
2022-10-06T02:20:44.024Z,249.62
2022-10-06T02:21:19.767Z,251.54
2022-10-06T02:21:52.152Z,257.16
2022-10-06T02:22:24.573Z,260.56
2022-10-06T02:22:56.888Z,250.62
2022-10-06T02:23:30.253Z,247.76
2022-10-06T02:24:02.555Z,255.46
2022-10-06T02:24:34.956Z,252.64
2022-10-06T02:25:07.511Z,247.18
2022-10-06T02:25:39.856Z,251.86
2022-10-06T02:26:13.095Z,243.64
2022-10-06T02:26:45.497Z,243.26
2022-10-06T02:27:18.333Z,249.68
2022-10-06T02:27:50.746Z,252.20
2022-10-06T02:28:23.223Z,249.88
2022-10-06T02:28:55.634Z,245.75
2022-10-06T02:29:29.670Z,237.84
2022-10-06T02:30:02.309Z,248.84
2022-10-06T02:30:35.470Z,250.04
2022-10-06T02:31:08.950Z,253.86
2022-10-06T02:31:42.480Z,250.98
2022-10-06T02:32:15.255Z,248.66
2022-10-06T02:32:47.697Z,245.72
2022-10-06T02:33:20.070Z,237.68
2022-10-06T02:33:52.450Z,246.60
2022-10-06T02:34:25.457Z,238.40
2022-10-06T02:35:00.448Z,251.62
2022-10-06T02:35:33.236Z,247.88
2022-10-06T02:36:06.783Z,256.58
2022-10-06T02:36:39.217Z,248.40
2022-10-06T02:37:12.709Z,254.43
2022-10-06T02:37:45.085Z,249.26
2022-10-06T02:38:22.091Z,261.13
2022-10-06T02:38:54.821Z,254.54
2022-10-06T02:39:27.096Z,251.04
2022-10-06T02:39:59.396Z,249.62
2022-10-06T02:40:31.799Z,241.60
2022-10-06T02:41:04.403Z,247.82
2022-10-06T02:41:36.750Z,252.84
2022-10-06T02:42:09.278Z,245.65
2022-10-06T02:42:44.225Z,253.95
2022-10-06T02:43:17.890Z,256.88
2022-10-06T02:43:50.386Z,252.98
2022-10-06T02:44:25.187Z,251.00
2022-10-06T02:44:59.871Z,244.62
2022-10-06T02:45:32.571Z,253.55
2022-10-06T02:46:06.428Z,255.38
2022-10-06T02:46:39.509Z,248.55
2022-10-06T02:47:14.687Z,246.68
2022-10-06T02:47:47.154Z,258.27
2022-10-06T02:48:20.236Z,258.80
2022-10-06T02:48:54.009Z,257.02
2022-10-06T02:49:26.308Z,259.14
2022-10-06T02:50:00.480Z,263.92
2022-10-06T02:50:34.280Z,251.07
2022-10-06T02:51:10.795Z,253.35
2022-10-06T02:51:43.649Z,263.40
2022-10-06T02:52:15.915Z,247.93
2022-10-06T02:52:48.261Z,243.18
2022-10-06T02:53:20.528Z,256.64
2022-10-06T02:53:53.059Z,251.52
2022-10-06T02:54:25.345Z,253.42
2022-10-06T02:54:57.613Z,242.52
2022-10-06T02:55:31.414Z,244.90
2022-10-06T02:56:09.331Z,250.66
2022-10-06T02:56:41.665Z,255.80
2022-10-06T02:57:14.729Z,254.40
2022-10-06T02:57:47.133Z,259.62
2022-10-06T02:58:20.016Z,244.94
2022-10-06T02:58:53.156Z,249.38
2022-10-06T02:59:34.369Z,263.02
2022-10-06T03:00:07.585Z,254.16
2022-10-06T03:00:40.005Z,258.02
2022-10-06T03:01:15.588Z,257.56
2022-10-06T03:01:48.055Z,252.48
2022-10-06T03:02:22.601Z,255.90
2022-10-06T03:02:55.270Z,251.70
2022-10-06T03:03:27.544Z,247.38
2022-10-06T03:04:00.806Z,256.70
2022-10-06T03:04:33.240Z,249.00
2022-10-06T03:05:05.719Z,248.70
2022-10-06T03:05:39.242Z,249.18
2022-10-06T03:06:32.947Z,255.45
2022-10-06T03:07:34.523Z,269.25
2022-10-06T03:08:06.816Z,266.10
2022-10-06T03:08:39.093Z,261.38
2022-10-06T03:09:11.556Z,250.70
2022-10-06T03:09:47.346Z,265.33
2022-10-06T03:10:19.780Z,249.45
2022-10-06T03:10:52.213Z,258.35
2022-10-06T03:11:28.699Z,247.48
2022-10-06T03:12:01.362Z,256.10
2022-10-06T03:12:40.060Z,267.65
2022-10-06T03:13:12.800Z,259.08
2022-10-06T03:13:46.623Z,260.52
2022-10-06T03:14:21.815Z,259.33
2022-10-06T03:14:54.934Z,260.10
2022-10-06T03:15:27.601Z,267.17
2022-10-06T03:16:00.444Z,261.40
2022-10-06T03:16:39.236Z,256.75
2022-10-06T03:17:15.159Z,247.28
2022-10-06T03:17:54.514Z,266.38
2022-10-06T03:18:27.296Z,251.54
2022-10-06T03:19:00.926Z,252.43
2022-10-06T03:19:34.939Z,258.25
2022-10-06T03:20:07.834Z,262.06
2022-10-06T03:20:40.124Z,259.33
2022-10-06T03:21:14.885Z,257.02
2022-10-06T03:21:47.399Z,260.34
2022-10-06T03:22:19.825Z,267.27
2022-10-06T03:23:01.298Z,258.67
2022-10-06T03:23:33.822Z,259.73
2022-10-06T03:24:06.609Z,257.20
2022-10-06T03:24:39.082Z,251.68
2022-10-06T03:25:11.346Z,251.54
2022-10-06T03:25:44.621Z,245.88
2022-10-06T03:26:20.718Z,251.56
2022-10-06T03:26:53.566Z,255.13
2022-10-06T03:27:26.434Z,244.68
2022-10-06T03:28:04.049Z,260.86
2022-10-06T03:28:40.504Z,261.14
2022-10-06T03:29:13.078Z,247.64
2022-10-06T03:29:48.813Z,250.10
2022-10-06T03:30:21.598Z,246.74
2022-10-06T03:30:55.113Z,254.23
2022-10-06T03:31:27.729Z,242.68
2022-10-06T03:32:01.298Z,259.60
2022-10-06T03:32:34.900Z,241.16
2022-10-06T03:33:07.492Z,250.90
2022-10-06T03:33:39.923Z,236.88
2022-10-06T03:34:15.232Z,239.54
2022-10-06T03:34:49.018Z,241.96
2022-10-06T03:35:21.880Z,248.26
2022-10-06T03:36:00.690Z,250.94
2022-10-06T03:36:34.041Z,255.70
2022-10-06T03:37:07.221Z,250.32
2022-10-06T03:37:39.668Z,244.92
2022-10-06T03:38:12.418Z,253.06
2022-10-06T03:38:44.970Z,248.77
2022-10-06T03:39:17.484Z,251.82
2022-10-06T03:39:49.750Z,256.30
2022-10-06T03:40:22.279Z,261.42
2022-10-06T03:41:01.789Z,257.76
2022-10-06T03:41:36.222Z,263.35
2022-10-06T03:42:09.486Z,255.98
2022-10-06T03:42:41.776Z,252.40
2022-10-06T03:43:14.319Z,253.46
2022-10-06T03:43:47.521Z,257.04
2022-10-06T03:44:22.242Z,264.34
2022-10-06T03:44:54.670Z,261.84
2022-10-06T03:45:27.119Z,264.20
2022-10-06T03:46:01.182Z,260.33
2022-10-06T03:46:35.533Z,258.92
2022-10-06T03:47:14.582Z,260.35
2022-10-06T03:47:49.560Z,269.35
2022-10-06T03:48:21.863Z,268.08
2022-10-06T03:48:54.734Z,258.33
2022-10-06T03:49:27.655Z,255.24
2022-10-06T03:50:00.152Z,271.27
2022-10-06T03:50:32.453Z,256.40
2022-10-06T03:51:06.181Z,259.55
2022-10-06T03:51:39.716Z,261.85
2022-10-06T03:52:15.456Z,255.77
2022-10-06T03:52:51.480Z,261.52
2022-10-06T03:53:28.165Z,258.80
2022-10-06T03:54:00.743Z,268.73
2022-10-06T03:54:34.638Z,270.78
2022-10-06T03:55:07.148Z,259.42
2022-10-06T03:55:39.425Z,258.84
2022-10-06T03:56:21.347Z,271.24
2022-10-06T03:56:53.767Z,261.36
2022-10-06T03:57:26.353Z,263.40
2022-10-06T03:57:59.660Z,258.46
2022-10-06T03:58:33.106Z,264.13
2022-10-06T03:59:07.111Z,257.46
2022-10-06T03:59:39.791Z,264.92
2022-10-06T04:00:12.850Z,264.50
2022-10-06T04:00:46.542Z,271.08
2022-10-06T04:01:25.692Z,269.83
2022-10-06T04:01:58.761Z,265.08
2022-10-06T04:02:35.168Z,273.25
2022-10-06T04:03:07.891Z,269.70
2022-10-06T04:03:40.583Z,260.06
2022-10-06T04:04:13.476Z,263.94
2022-10-06T04:04:47.302Z,261.67
2022-10-06T04:05:19.674Z,258.88
2022-10-06T04:05:52.815Z,265.66
2022-10-06T04:06:26.038Z,264.76
2022-10-06T04:06:59.194Z,266.42
2022-10-06T04:07:31.892Z,251.34
2022-10-06T04:08:04.301Z,254.50
2022-10-06T04:08:37.075Z,261.34
2022-10-06T04:09:14.982Z,262.02
2022-10-06T04:09:48.413Z,267.13
2022-10-06T04:10:21.966Z,268.38
2022-10-06T04:10:54.782Z,256.77
2022-10-06T04:11:28.774Z,259.88
2022-10-06T04:12:01.358Z,255.28
2022-10-06T04:12:36.042Z,262.52
2022-10-06T04:13:08.525Z,261.33
2022-10-06T04:13:41.581Z,255.90
2022-10-06T04:14:15.629Z,254.93
2022-10-06T04:14:48.308Z,254.32
2022-10-06T04:15:20.691Z,256.42
2022-10-06T04:15:53.038Z,245.32
2022-10-06T04:16:32.603Z,254.68
2022-10-06T04:17:06.701Z,256.16
2022-10-06T04:17:41.524Z,261.68
2022-10-06T04:18:15.182Z,260.77
2022-10-06T04:18:49.666Z,253.40
2022-10-06T04:19:22.370Z,254.82
2022-10-06T04:19:58.173Z,260.88
2022-10-06T04:20:31.006Z,263.22
2022-10-06T04:21:03.463Z,265.76
2022-10-06T04:21:39.333Z,254.74
2022-10-06T04:22:13.821Z,264.33
2022-10-06T04:22:46.220Z,260.95
2022-10-06T04:23:21.114Z,255.75
2022-10-06T04:23:54.043Z,267.17
2022-10-06T04:24:26.390Z,261.85
2022-10-06T04:24:59.006Z,257.84
2022-10-06T04:25:31.463Z,264.16
2022-10-06T04:26:23.255Z,271.83
2022-10-06T04:27:17.071Z,271.73
2022-10-06T04:27:54.925Z,266.65
2022-10-06T04:28:27.637Z,265.40
2022-10-06T04:29:00.967Z,267.50
2022-10-06T04:29:33.257Z,271.15
2022-10-06T04:30:06.059Z,269.06
2022-10-06T04:30:39.180Z,269.96
2022-10-06T04:31:15.962Z,263.66
2022-10-06T04:31:49.385Z,278.78
2022-10-06T04:32:27.676Z,278.90
2022-10-06T04:33:00.335Z,263.17
2022-10-06T04:33:34.456Z,273.52
2022-10-06T04:34:08.025Z,273.64
2022-10-06T04:34:40.778Z,285.33
2022-10-06T04:35:13.390Z,277.15
2022-10-06T04:35:45.761Z,278.45
2022-10-06T04:36:22.972Z,286.70
2022-10-06T04:36:56.995Z,288.00
2022-10-06T04:37:29.745Z,275.00
2022-10-06T04:38:03.096Z,278.06
2022-10-06T04:38:36.064Z,267.66
2022-10-06T04:39:10.918Z,270.14
2022-10-06T04:39:44.266Z,278.42
2022-10-06T04:40:16.585Z,272.30
2022-10-06T04:40:49.044Z,277.04
2022-10-06T04:41:22.579Z,269.48
2022-10-06T04:41:55.148Z,269.88
2022-10-06T04:42:35.104Z,275.15
2022-10-06T04:43:11.039Z,268.66
2022-10-06T04:43:45.117Z,271.88
2022-10-06T04:44:17.470Z,279.02
2022-10-06T04:44:50.183Z,277.95
2022-10-06T04:45:22.575Z,269.83
2022-10-06T04:45:59.131Z,276.27
2022-10-06T04:46:48.203Z,278.13
2022-10-06T04:47:21.595Z,292.42
2022-10-06T04:47:54.649Z,275.56
2022-10-06T04:48:27.828Z,277.45
2022-10-06T04:49:00.925Z,273.05
2022-10-06T04:49:35.666Z,276.75
2022-10-06T04:50:09.650Z,285.15
2022-10-06T04:50:52.980Z,289.95
2022-10-06T04:51:26.190Z,291.10
2022-10-06T04:51:59.096Z,277.02
2022-10-06T04:52:32.344Z,289.15
2022-10-06T04:53:04.815Z,292.77
2022-10-06T04:53:37.681Z,290.73
2022-10-06T04:54:10.774Z,289.05
2022-10-06T04:54:43.059Z,291.90
2022-10-06T04:55:15.414Z,281.00
2022-10-06T04:55:47.887Z,290.25
2022-10-06T04:56:27.552Z,292.40
2022-10-06T04:57:00.051Z,292.33
2022-10-06T04:57:33.669Z,294.73
2022-10-06T04:58:06.029Z,293.83
2022-10-06T04:58:39.571Z,292.42
2022-10-06T04:59:12.328Z,291.23
2022-10-06T05:00:11.105Z,299.38
2022-10-06T05:00:49.093Z,318.15
2022-10-06T05:01:22.694Z,324.23
2022-10-06T05:01:55.819Z,322.30
2022-10-06T05:02:31.654Z,321.67
2022-10-06T05:03:04.131Z,323.75
2022-10-06T05:03:36.805Z,331.67
2022-10-06T05:04:09.348Z,468.17
2022-10-06T05:04:42.591Z,249.58
2022-10-06T05:05:15.615Z,238.20
2022-10-06T05:05:48.394Z,244.06
2022-10-06T05:06:25.618Z,222.74
2022-10-06T05:06:58.416Z,230.36
2022-10-06T05:07:31.209Z,239.57
2022-10-06T05:08:03.688Z,235.80
2022-10-06T05:08:36.405Z,238.93
2022-10-06T05:09:10.545Z,237.74
2022-10-06T05:09:44.948Z,242.65
2022-10-06T05:10:17.565Z,240.73
2022-10-06T05:10:50.357Z,237.65
2022-10-06T05:11:25.897Z,237.98
2022-10-06T05:11:59.077Z,232.88
2022-10-06T05:12:31.562Z,241.76
2022-10-06T05:13:06.643Z,251.07
2022-10-06T05:13:39.767Z,239.48
2022-10-06T05:14:12.420Z,250.07
2022-10-06T05:14:48.445Z,247.10
2022-10-06T05:15:21.323Z,233.80
2022-10-06T05:16:01.391Z,235.26
2022-10-06T05:16:38.461Z,244.48
2022-10-06T05:17:11.990Z,226.30
2022-10-06T05:17:44.874Z,226.08
2022-10-06T05:18:17.611Z,229.08
2022-10-06T05:18:50.845Z,236.23
2022-10-06T05:19:23.832Z,241.82
2022-10-06T05:19:56.408Z,243.63
2022-10-06T05:20:28.682Z,245.73
2022-10-06T05:21:06.620Z,237.96
2022-10-06T05:21:39.506Z,239.60
2022-10-06T05:22:13.278Z,232.50
2022-10-06T05:22:45.728Z,232.24
2022-10-06T05:23:19.024Z,231.73
2022-10-06T05:23:52.306Z,228.92
2022-10-06T05:24:25.481Z,244.65
2022-10-06T05:24:58.466Z,235.22
2022-10-06T05:25:30.881Z,233.52
2022-10-06T05:26:03.600Z,241.63
2022-10-06T05:26:36.914Z,233.43
2022-10-06T05:27:12.026Z,238.55
2022-10-06T05:27:44.504Z,231.60
2022-10-06T05:28:16.842Z,235.05
2022-10-06T05:28:50.012Z,237.12
2022-10-06T05:29:22.594Z,228.05
2022-10-06T05:29:55.031Z,222.48
2022-10-06T05:30:27.386Z,228.28
2022-10-06T05:31:07.565Z,242.60
2022-10-06T05:31:41.346Z,234.30
2022-10-06T05:32:13.845Z,241.48
2022-10-06T05:32:50.531Z,228.10
2022-10-06T05:33:23.646Z,241.00
2022-10-06T05:33:56.581Z,234.40
2022-10-06T05:34:29.144Z,242.68
2022-10-06T05:35:01.458Z,240.14
2022-10-06T05:35:34.127Z,240.72
2022-10-06T05:36:07.875Z,226.98
2022-10-06T05:36:40.258Z,242.82
2022-10-06T05:37:13.917Z,241.04
2022-10-06T05:37:46.503Z,238.18
2022-10-06T05:38:19.034Z,238.52
2022-10-06T05:38:51.391Z,238.88
2022-10-06T05:39:23.643Z,245.68
2022-10-06T05:40:00.168Z,233.42
2022-10-06T05:40:32.489Z,229.10
2022-10-06T05:41:11.727Z,234.76
2022-10-06T05:41:44.446Z,243.43
2022-10-06T05:42:18.199Z,245.32
2022-10-06T05:42:50.666Z,229.92
2022-10-06T05:43:23.205Z,226.60
2022-10-06T05:43:55.906Z,243.86
2022-10-06T05:44:28.221Z,232.10
2022-10-06T05:45:04.640Z,240.08
2022-10-06T05:45:37.171Z,239.32
2022-10-06T05:46:20.518Z,235.22
2022-10-06T05:46:53.190Z,241.93
2022-10-06T05:47:25.603Z,229.72
2022-10-06T05:47:58.297Z,230.82
2022-10-06T05:48:31.451Z,219.74
2022-10-06T05:49:08.520Z,228.24
2022-10-06T05:49:40.979Z,234.60
2022-10-06T05:50:13.684Z,244.14
2022-10-06T05:50:46.044Z,232.50
2022-10-06T05:51:19.490Z,234.52
2022-10-06T05:51:53.321Z,238.96
2022-10-06T05:52:30.409Z,239.50
2022-10-06T05:53:02.960Z,232.56
2022-10-06T05:53:36.118Z,236.28
2022-10-06T05:54:09.633Z,237.84
2022-10-06T05:54:42.317Z,245.52
2022-10-06T05:55:15.621Z,238.46
2022-10-06T05:55:47.882Z,236.80
2022-10-06T05:56:24.655Z,228.50
2022-10-06T05:56:56.990Z,242.24
2022-10-06T05:57:29.316Z,234.02
2022-10-06T05:58:02.574Z,236.14
2022-10-06T05:58:36.147Z,234.82
2022-10-06T05:59:08.655Z,232.62
2022-10-06T05:59:41.010Z,241.26
2022-10-06T06:00:13.455Z,230.90
2022-10-06T06:00:47.665Z,233.28
2022-10-06T06:01:23.902Z,225.96
2022-10-06T06:01:56.824Z,238.95
2022-10-06T06:02:43.099Z,238.02
2022-10-06T06:03:17.274Z,243.54
2022-10-06T06:03:59.593Z,235.98
2022-10-06T06:04:33.591Z,234.10
2022-10-06T06:05:06.690Z,233.72
2022-10-06T06:05:42.384Z,242.46
2022-10-06T06:06:19.978Z,234.16
2022-10-06T06:06:52.921Z,239.78
2022-10-06T06:07:27.710Z,240.28
2022-10-06T06:08:00.207Z,230.74
2022-10-06T06:08:33.195Z,228.64
2022-10-06T06:09:07.128Z,235.16
2022-10-06T06:09:40.121Z,222.70
2022-10-06T06:10:12.860Z,227.12
2022-10-06T06:10:45.281Z,236.72
2022-10-06T06:11:17.765Z,234.48
2022-10-06T06:11:50.986Z,241.38
2022-10-06T06:12:25.744Z,239.86
2022-10-06T06:13:09.544Z,242.36
2022-10-06T06:13:49.848Z,245.60
2022-10-06T06:14:45.959Z,242.30
2022-10-06T06:15:41.686Z,253.07
2022-10-06T06:16:15.902Z,251.48
2022-10-06T06:16:48.954Z,237.56
2022-10-06T06:17:21.523Z,246.60
2022-10-06T06:17:53.892Z,216.36
2022-10-06T06:18:26.897Z,227.92
2022-10-06T06:19:00.252Z,232.12
2022-10-06T06:19:33.272Z,212.88
2022-10-06T06:20:06.168Z,215.60
2022-10-06T06:20:38.443Z,223.40
2022-10-06T06:21:11.402Z,229.25
2022-10-06T06:21:43.712Z,217.88
2022-10-06T06:22:16.670Z,235.80
2022-10-06T06:22:52.424Z,218.74
2022-10-06T06:23:31.529Z,232.14
2022-10-06T06:24:04.560Z,240.90
2022-10-06T06:24:37.723Z,235.76
2022-10-06T06:25:10.338Z,228.88
2022-10-06T06:25:44.427Z,227.86
2022-10-06T06:26:23.814Z,235.04
2022-10-06T06:26:56.884Z,227.95
2022-10-06T06:27:29.684Z,227.92
2022-10-06T06:28:02.092Z,231.84
2022-10-06T06:28:35.706Z,228.70
2022-10-06T06:29:08.117Z,223.54
2022-10-06T06:29:48.908Z,239.28
2022-10-06T06:30:22.699Z,230.98
2022-10-06T06:31:03.243Z,226.58
2022-10-06T06:31:36.990Z,222.12
2022-10-06T06:32:09.865Z,230.58
2022-10-06T06:32:43.031Z,228.94
2022-10-06T06:33:15.283Z,227.98
2022-10-06T06:33:48.500Z,222.94
2022-10-06T06:34:21.507Z,239.38
2022-10-06T06:34:53.771Z,229.92
2022-10-06T06:35:26.543Z,226.42
2022-10-06T06:36:03.414Z,230.38
2022-10-06T06:36:41.214Z,232.74
2022-10-06T06:37:16.722Z,240.66
2022-10-06T06:37:51.578Z,241.90
2022-10-06T06:38:24.491Z,227.30
2022-10-06T06:38:57.595Z,228.54
2022-10-06T06:39:29.894Z,231.74
2022-10-06T06:40:02.772Z,225.18
2022-10-06T06:40:40.343Z,226.38
2022-10-06T06:41:13.450Z,227.24
2022-10-06T06:41:46.710Z,221.92
2022-10-06T06:42:44.848Z,236.36
2022-10-06T06:43:23.219Z,242.26
2022-10-06T06:44:22.579Z,246.42
2022-10-06T06:44:58.314Z,243.10
2022-10-06T06:45:36.306Z,243.48
2022-10-06T06:46:26.039Z,241.32
2022-10-06T06:47:08.078Z,240.64
2022-10-06T06:47:40.584Z,234.36
2022-10-06T06:48:16.605Z,244.40
2022-10-06T06:48:53.557Z,242.14
2022-10-06T06:49:25.895Z,237.80
2022-10-06T06:50:03.503Z,238.60
2022-10-06T06:50:36.884Z,242.60
2022-10-06T06:51:13.487Z,237.06
2022-10-06T06:51:50.168Z,235.96
2022-10-06T06:52:26.249Z,222.85
2022-10-06T06:53:00.051Z,235.96
2022-10-06T06:53:32.683Z,229.60
2022-10-06T06:54:07.452Z,236.20
2022-10-06T06:54:42.700Z,234.34
2022-10-06T06:55:18.845Z,238.82
2022-10-06T06:55:51.904Z,229.48
2022-10-06T06:56:26.932Z,228.70
2022-10-06T06:56:59.468Z,215.76
2022-10-06T06:57:32.067Z,221.96
2022-10-06T06:58:05.829Z,218.84
2022-10-06T06:58:38.521Z,229.18
2022-10-06T06:59:13.307Z,226.32
2022-10-06T06:59:50.302Z,239.94
2022-10-06T07:00:23.882Z,226.30
2022-10-06T07:01:06.565Z,227.24
2022-10-06T07:01:48.233Z,232.04
2022-10-06T07:02:28.498Z,234.12
2022-10-06T07:03:01.608Z,230.56
2022-10-06T07:03:56.614Z,228.86
2022-10-06T07:04:29.294Z,237.58
2022-10-06T07:05:01.958Z,238.00
2022-10-06T07:05:35.673Z,223.78
2022-10-06T07:06:09.732Z,232.80
2022-10-06T07:06:46.617Z,235.44